Current Weather

Sirnak

Sirnak, Turkey (LTCV)

Report from: Tuesday, August 16, 2022 6:50 AM UTC
Current time: Tuesday, August 16, 2022 7:17 AM UTC

Nearby weather
Weather history
Weather forecast

Temperature34.0°C (93.2°F)
Heat index32.3°C (90.1°F)
Dew point10.0°C (50.0°F)
Winds 4 kts (2.1 m/s, 4.6 mph) Vrb
Winds variableWinds variable
Clouds Sky clear
Altimeter29.77 in.Hg (1008 mB)
Relative humidity23 %
Density altitude2,512 ft. (766 m)
Remarks Ceiling and visibility OK
Flight conditions Visual Meteorological Conditions
Raw dataLTCV 160650Z VRB04KT CAVOK 34/10 Q1008
An error has occurred. This application may no longer respond until reloaded. Reload 🗙